Time;durP1;ratioP1;P1;durP2;ratioP2;P2;SDS_P1;SDS_P2;PMS_P1;PMS_P2;Temp;Humidity;BMP_temperature;BMP_pressure;BME280_temperature;BME280_humidity;BME280_pressure;Samples;Min_cycle;Max_cycle;Signal;HPM_P1;HPM_P2
2023/01/23 00:01:11;;;;;;;5.00;3.63;;;5.20;99.90;;;;;;5071342;28;20074;-42
2023/01/23 00:03:37;;;;;;;5.60;4.22;;;5.20;99.90;;;;;;5073042;28;20422;-38
2023/01/23 00:06:09;;;;;;;5.97;3.92;;;5.30;99.90;;;;;;5071040;28;20217;-39
2023/01/23 00:08:35;;;;;;;5.43;4.00;;;5.50;99.90;;;;;;5070909;28;20454;-40
2023/01/23 00:11:10;;;;;;;5.28;3.97;;;5.70;99.90;;;;;;5071677;28;20052;-32
2023/01/23 00:13:36;;;;;;;5.72;3.67;;;5.90;99.90;;;;;;5072244;28;20056;-40
2023/01/23 00:16:08;;;;;;;5.13;4.13;;;6.10;99.90;;;;;;5070938;28;20044;-34
2023/01/23 00:18:33;;;;;;;6.13;3.70;;;6.10;99.90;;;;;;5071017;28;20541;-42
2023/01/23 00:21:07;;;;;;;4.90;3.53;;;6.00;99.90;;;;;;5070938;28;20112;-32
2023/01/23 00:23:33;;;;;;;;;;;6.00;99.90;;;;;;5075223;28;20040;-41
2023/01/23 00:26:04;;;;;;;4.93;3.75;;;5.90;99.90;;;;;;5074734;28;20002;-41
2023/01/23 00:28:30;;;;;;;4.90;3.53;;;5.80;99.90;;;;;;5074888;28;20024;-33
2023/01/23 00:31:07;;;;;;;5.65;3.90;;;5.70;99.90;;;;;;5076298;28;20023;-33
2023/01/23 00:33:32;;;;;;;5.35;4.13;;;5.60;99.90;;;;;;5074783;28;20025;-35
2023/01/23 00:35:58;;;;;;;6.38;4.47;;;5.60;99.90;;;;;;5074620;28;20029;-34
2023/01/23 00:38:24;;;;;;;5.65;4.18;;;5.50;99.90;;;;;;5074664;28;20394;-35
2023/01/23 00:40:49;;;;;;;5.20;4.38;;;5.50;99.90;;;;;;5074712;28;20068;-39
2023/01/23 00:43:15;;;;;;;5.85;4.10;;;5.40;99.90;;;;;;5074683;28;20404;-37
2023/01/23 00:45:41;;;;;;;5.55;4.07;;;5.40;99.90;;;;;;5074532;28;20029;-33
2023/01/23 00:48:06;;;;;;;6.03;4.43;;;5.30;99.90;;;;;;5074162;28;20171;-34
2023/01/23 00:50:32;;;;;;;7.28;4.70;;;5.30;99.90;;;;;;5075220;28;20032;-35
2023/01/23 00:52:57;;;;;;;5.70;4.40;;;5.30;99.90;;;;;;5074401;28;20378;-36
2023/01/23 00:55:23;;;;;;;4.95;4.05;;;5.30;99.90;;;;;;5075709;28;20108;-36
2023/01/23 00:57:49;;;;;;;5.53;4.05;;;5.20;99.90;;;;;;5073964;28;20036;-41
2023/01/23 01:00:15;;;;;;;5.32;4.20;;;5.20;99.90;;;;;;5074843;28;20470;-35
2023/01/23 01:02:41;;;;;;;5.75;4.20;;;5.20;99.90;;;;;;5074211;28;20032;-33
2023/01/23 01:05:07;;;;;;;5.43;4.47;;;5.30;99.90;;;;;;5074165;28;20027;-42
2023/01/23 01:07:32;;;;;;;6.13;4.68;;;5.40;99.90;;;;;;5073846;28;20027;-41
2023/01/23 01:09:58;;;;;;;5.70;4.25;;;5.60;99.90;;;;;;5073981;28;20486;-37
2023/01/23 01:12:23;;;;;;;5.57;4.50;;;5.80;99.90;;;;;;5074076;28;20024;-35
2023/01/23 01:14:49;;;;;;;5.50;4.30;;;6.00;99.90;;;;;;5073905;28;20066;-34
2023/01/23 01:17:14;;;;;;;6.20;4.13;;;6.10;99.90;;;;;;5073747;28;20017;-36
2023/01/23 01:19:40;;;;;;;6.05;4.40;;;6.00;99.90;;;;;;5073892;28;20145;-35
2023/01/23 01:22:06;;;;;;;5.30;4.10;;;5.90;99.90;;;;;;5075452;28;20067;-38
2023/01/23 01:24:31;;;;;;;6.35;4.10;;;5.90;99.90;;;;;;5074666;28;20032;-33
2023/01/23 01:26:57;;;;;;;5.88;4.70;;;5.80;99.90;;;;;;5075328;28;20037;-41
2023/01/23 01:29:23;;;;;;;5.65;4.20;;;5.80;99.90;;;;;;5073480;28;20024;-39
2023/01/23 01:31:48;;;;;;;5.60;4.10;;;5.60;99.90;;;;;;5073759;28;20024;-41
2023/01/23 01:34:14;;;;;;;6.57;4.20;;;5.60;99.90;;;;;;5073175;28;20517;-38
2023/01/23 01:36:40;;;;;;;5.78;4.45;;;5.50;99.90;;;;;;5073425;28;20081;-37
2023/01/23 01:39:05;;;;;;;6.25;4.78;;;5.50;99.90;;;;;;5074202;28;20039;-40
2023/01/23 01:41:31;;;;;;;6.05;4.53;;;5.40;99.90;;;;;;5073614;28;20032;-42
2023/01/23 01:43:58;;;;;;;6.10;4.63;;;5.40;99.90;;;;;;5073560;28;20040;-40
2023/01/23 01:46:28;;;;;;;5.43;4.20;;;5.40;99.90;;;;;;5073330;28;20417;-39
2023/01/23 01:49:06;;;;;;;5.75;4.05;;;5.30;99.90;;;;;;5073276;28;20063;-42
2023/01/23 01:51:44;;;;;;;6.82;4.82;;;5.30;99.90;;;;;;5074548;28;20017;-38
2023/01/23 01:54:43;;;;;;;5.38;4.00;;;5.30;99.90;;;;;;5074148;28;20017;-40
2023/01/23 01:57:34;;;;;;;5.18;4.25;;;5.30;99.90;;;;;;5074815;28;20060;-40
2023/01/23 02:00:16;;;;;;;6.22;4.63;;;5.20;99.90;;;;;;5073226;28;20061;-37
2023/01/23 02:03:00;;;;;;;5.82;4.57;;;5.20;99.90;;;;;;5073230;28;20085;-38
2023/01/23 02:05:29;;;;;;;5.90;4.37;;;5.30;99.90;;;;;;5073167;28;20066;-32
2023/01/23 02:08:07;;;;;;;5.47;4.15;;;5.40;99.90;;;;;;5072743;28;20278;-41
2023/01/23 02:10:35;;;;;;;5.78;4.18;;;5.60;99.90;;;;;;5072884;28;20039;-35
2023/01/23 02:13:24;;;;;;;5.70;4.28;;;5.80;99.90;;;;;;5072941;28;20016;-37
2023/01/23 02:15:51;;;;;;;5.20;4.30;;;6.00;99.90;;;;;;5072705;28;20025;-39
2023/01/23 02:18:17;;;;;;;5.15;3.78;;;6.10;99.90;;;;;;5072991;28;20060;-34
2023/01/23 02:20:43;;;;;;;4.80;3.80;;;6.00;99.90;;;;;;5073496;28;20024;-33
2023/01/23 02:23:37;;;;;;;5.10;4.30;;;6.00;99.90;;;;;;5072632;28;20035;-40
2023/01/23 02:26:06;;;;;;;5.05;4.05;;;5.90;99.90;;;;;;5072549;28;20024;-33
2023/01/23 02:28:46;;;;;;;5.20;4.00;;;5.80;99.90;;;;;;5072951;28;20028;-34
2023/01/23 02:31:13;;;;;;;6.45;4.47;;;5.70;99.90;;;;;;5073175;28;20079;-37
2023/01/23 02:33:39;;;;;;;4.90;3.78;;;5.60;99.90;;;;;;5073183;28;20016;-36
2023/01/23 02:36:07;;;;;;;5.20;4.20;;;5.50;99.90;;;;;;5072253;28;20030;-39
2023/01/23 02:38:43;;;;;;;5.78;4.00;;;5.50;99.90;;;;;;5073886;28;20028;-35
2023/01/23 02:41:12;;;;;;;5.70;4.25;;;5.40;99.90;;;;;;5072437;28;20490;-36
2023/01/23 02:43:38;;;;;;;6.15;4.28;;;5.40;99.90;;;;;;5072244;28;20028;-38
2023/01/23 02:46:06;;;;;;;6.15;4.07;;;5.40;99.90;;;;;;5071328;28;20505;-34
2023/01/23 02:48:32;;;;;;;5.65;4.50;;;5.30;99.90;;;;;;5072182;28;20115;-34
2023/01/23 02:50:57;;;;;;;6.35;4.32;;;5.30;99.90;;;;;;5072219;28;20150;-36
2023/01/23 02:53:24;;;;;;;6.75;4.60;;;5.30;99.90;;;;;;5073510;28;20020;-42
2023/01/23 02:55:50;;;;;;;6.45;5.00;;;5.30;99.90;;;;;;5071985;28;20490;-38
2023/01/23 03:01:01;;;;;;;;;;;5.20;99.90;;;;;;5072818;28;20043;-41
2023/01/23 03:03:27;;;;;;;6.72;4.82;;;5.20;99.90;;;;;;5074379;28;19919;-36
2023/01/23 03:05:54;;;;;;;5.63;4.47;;;5.30;99.90;;;;;;5071950;28;20028;-42
2023/01/23 03:08:20;;;;;;;6.78;4.65;;;5.50;99.90;;;;;;5071716;28;20028;-31
2023/01/23 03:10:45;;;;;;;6.15;4.53;;;5.60;99.90;;;;;;5071730;28;20021;-39
2023/01/23 03:13:11;;;;;;;6.40;4.45;;;5.90;99.90;;;;;;5071749;28;20467;-33
2023/01/23 03:15:38;;;;;;;5.60;4.30;;;6.00;99.90;;;;;;5071882;28;20155;-36
2023/01/23 03:18:04;;;;;;;5.40;4.47;;;6.10;99.90;;;;;;5071585;28;20023;-38
2023/01/23 03:20:36;;;;;;;6.93;4.60;;;6.00;99.90;;;;;;5071719;28;20051;-42
2023/01/23 03:23:02;;;;;;;6.30;4.30;;;6.00;99.90;;;;;;5072082;28;20036;-41
2023/01/23 03:25:27;;;;;;;6.00;4.55;;;5.90;99.90;;;;;;5071502;28;20036;-42
2023/01/23 03:27:53;;;;;;;5.72;4.45;;;5.80;99.90;;;;;;5071412;28;20020;-39
2023/01/23 03:30:20;;;;;;;6.93;5.03;;;5.70;99.90;;;;;;5071479;28;20115;-36
2023/01/23 03:32:47;;;;;;;7.05;4.85;;;5.60;99.90;;;;;;5071826;28;20048;-40
2023/01/23 03:35:15;;;;;;;5.72;4.63;;;5.60;99.90;;;;;;5071409;28;20028;-40
2023/01/23 03:37:45;;;;;;;6.93;4.78;;;5.50;99.90;;;;;;5071082;28;20021;-42
2023/01/23 03:43:02;;;;;;;7.25;4.93;;;5.40;99.90;;;;;;5071682;28;20058;-38
2023/01/23 03:45:28;;;;;;;6.68;4.93;;;5.40;99.90;;;;;;5071270;28;20423;-40
2023/01/23 03:47:54;;;;;;;6.35;4.75;;;5.30;99.90;;;;;;5071069;28;20117;-39
2023/01/23 03:50:19;;;;;;;6.85;5.15;;;5.30;99.90;;;;;;5071081;28;20017;-40
2023/01/23 03:52:45;;;;;;;7.25;4.95;;;5.30;99.90;;;;;;5072812;28;20016;-35
2023/01/23 03:55:10;;;;;;;6.50;4.65;;;5.30;99.90;;;;;;5071335;28;20029;-42
2023/01/23 03:57:36;;;;;;;6.10;5.00;;;5.20;99.90;;;;;;5069446;28;20475;-33
2023/01/23 04:00:03;;;;;;;6.38;4.78;;;5.20;99.90;;;;;;5071185;28;20032;-42
2023/01/23 04:02:28;;;;;;;6.82;5.25;;;5.20;99.90;;;;;;5072287;28;20035;-36
2023/01/23 04:04:54;;;;;;;6.82;4.90;;;5.20;99.90;;;;;;5071053;28;20028;-33
2023/01/23 04:07:19;;;;;;;8.93;5.45;;;5.40;99.90;;;;;;5071097;28;20055;-41
2023/01/23 04:09:45;;;;;;;6.90;5.10;;;5.60;99.90;;;;;;5071001;28;20052;-34
2023/01/23 04:12:11;;;;;;;6.20;4.68;;;5.80;99.90;;;;;;5071123;28;20530;-38
2023/01/23 04:14:36;;;;;;;6.45;4.72;;;6.00;99.90;;;;;;5071068;28;20398;-42
2023/01/23 04:17:04;;;;;;;6.65;4.80;;;6.10;99.90;;;;;;5070833;28;20020;-39
2023/01/23 04:19:29;;;;;;;7.85;5.03;;;6.00;99.90;;;;;;5071945;28;20054;-40
2023/01/23 04:21:55;;;;;;;7.18;5.05;;;6.00;99.90;;;;;;5070969;28;20029;-37
2023/01/23 04:24:21;;;;;;;7.25;5.32;;;5.90;99.90;;;;;;5071111;28;20020;-36
2023/01/23 04:26:47;;;;;;;7.22;5.15;;;5.80;99.90;;;;;;5070731;28;20024;-42
2023/01/23 04:29:12;;;;;;;7.40;5.25;;;5.80;99.90;;;;;;5070837;28;20040;-42
2023/01/23 04:31:38;;;;;;;7.63;5.10;;;5.70;99.90;;;;;;5070957;28;20154;-41
2023/01/23 04:34:04;;;;;;;6.43;5.05;;;5.60;99.90;;;;;;5070700;28;20029;-42
2023/01/23 04:36:29;;;;;;;6.85;5.05;;;5.60;99.90;;;;;;5069517;28;20029;-38
2023/01/23 04:38:57;;;;;;;7.60;5.25;;;5.50;99.90;;;;;;5071164;28;20115;-41
2023/01/23 04:41:25;;;;;;;7.00;4.65;;;5.50;99.90;;;;;;5070828;28;20029;-39
2023/01/23 04:43:51;;;;;;;7.72;5.68;;;5.40;99.90;;;;;;5071122;28;20083;-40
2023/01/23 04:46:17;;;;;;;7.18;5.57;;;5.30;99.90;;;;;;5070718;28;20032;-33
2023/01/23 04:48:42;;;;;;;7.43;5.57;;;5.30;99.90;;;;;;5070851;28;20525;-35
2023/01/23 04:51:08;;;;;;;7.85;5.72;;;5.30;99.90;;;;;;5073088;28;20056;-38
2023/01/23 04:53:34;;;;;;;6.68;5.50;;;5.30;99.90;;;;;;5070757;28;20052;-42
2023/01/23 04:56:00;;;;;;;6.90;5.18;;;5.20;99.90;;;;;;5070504;28;20050;-40
2023/01/23 04:58:26;;;;;;;8.25;5.80;;;5.20;99.90;;;;;;5069250;28;20033;-42
2023/01/23 05:00:52;;;;;;;6.55;5.03;;;5.20;99.90;;;;;;5071412;28;20020;-41
2023/01/23 05:03:18;;;;;;;6.95;5.55;;;5.20;99.90;;;;;;5070580;28;20509;-40
2023/01/23 05:05:44;;;;;;;8.63;5.47;;;5.30;99.90;;;;;;5071114;28;20032;-37
2023/01/23 05:08:11;;;;;;;7.20;5.25;;;5.50;99.90;;;;;;5071648;28;20028;-33
2023/01/23 05:10:37;;;;;;;7.18;5.65;;;5.60;99.90;;;;;;5075435;28;20024;-39
2023/01/23 05:13:02;;;;;;;7.18;5.55;;;5.80;99.90;;;;;;5074069;28;20024;-41
2023/01/23 05:15:28;;;;;;;7.13;5.28;;;6.00;99.90;;;;;;5074018;28;20448;-42
2023/01/23 05:17:54;;;;;;;7.93;5.68;;;6.00;99.90;;;;;;5077413;28;20040;-39
2023/01/23 05:20:22;;;;;;;6.00;4.78;;;6.00;99.90;;;;;;5073914;28;20460;-34
2023/01/23 05:22:51;;;;;;;7.85;5.88;;;6.00;99.90;;;;;;5075517;28;20085;-41
2023/01/23 05:25:18;;;;;;;7.53;5.30;;;5.90;99.90;;;;;;5073783;28;20093;-42
2023/01/23 05:27:44;;;;;;;8.05;5.88;;;5.80;99.90;;;;;;5073759;28;20089;-35
2023/01/23 05:30:10;;;;;;;7.45;5.70;;;5.70;99.90;;;;;;5073877;28;20020;-41
2023/01/23 05:32:36;;;;;;;7.47;5.65;;;5.70;99.90;;;;;;5074855;28;20036;-41
2023/01/23 05:35:01;;;;;;;7.90;5.90;;;5.60;99.90;;;;;;5073720;28;20016;-42
2023/01/23 05:37:27;;;;;;;7.80;5.70;;;5.50;99.90;;;;;;5073389;28;20037;-42
2023/01/23 05:39:53;;;;;;;8.02;5.65;;;5.50;99.90;;;;;;5073490;28;20016;-37
2023/01/23 05:42:18;;;;;;;7.68;5.95;;;5.40;99.90;;;;;;5073603;28;20363;-34
2023/01/23 05:44:44;;;;;;;7.72;5.70;;;5.40;99.90;;;;;;5072560;28;20068;-34
2023/01/23 05:47:09;;;;;;;7.63;5.88;;;5.40;99.90;;;;;;5074700;28;20082;-33
2023/01/23 05:49:35;;;;;;;8.02;6.00;;;5.30;99.90;;;;;;5074879;28;20056;-41
2023/01/23 05:52:01;;;;;;;7.70;5.75;;;5.30;99.90;;;;;;5073497;28;20398;-36
2023/01/23 05:54:26;;;;;;;7.63;5.75;;;5.30;99.90;;;;;;5073234;28;20178;-33
2023/01/23 05:56:52;;;;;;;7.32;5.75;;;5.20;99.90;;;;;;5073013;28;20016;-40
2023/01/23 05:59:18;;;;;;;8.73;6.07;;;5.20;99.90;;;;;;5073963;28;20064;-32
2023/01/23 06:01:44;;;;;;;7.47;5.80;;;5.20;99.90;;;;;;5073162;28;20071;-42
2023/01/23 06:04:11;;;;;;;8.02;5.97;;;5.30;99.90;;;;;;5074621;28;20397;-34
2023/01/23 06:06:37;;;;;;;8.65;5.78;;;5.30;99.90;;;;;;5072775;28;20029;-39
2023/01/23 06:09:03;;;;;;;8.20;5.97;;;5.50;99.90;;;;;;5072938;28;20544;-35
2023/01/23 06:11:28;;;;;;;8.15;5.38;;;5.70;99.90;;;;;;5073199;28;20021;-42
2023/01/23 06:13:54;;;;;;;16.42;11.98;;;5.90;99.90;;;;;;5072952;28;20471;-41
2023/01/23 06:16:19;;;;;;;15.35;10.52;;;6.00;99.90;;;;;;5072692;28;20021;-41
2023/01/23 06:18:45;;;;;;;16.77;10.80;;;5.80;99.90;;;;;;5072717;28;20541;-42
2023/01/23 06:21:11;;;;;;;17.23;10.75;;;5.60;99.90;;;;;;5074818;28;20020;-43
2023/01/23 06:23:36;;;;;;;17.98;11.73;;;5.50;99.90;;;;;;5072795;28;20027;-42
2023/01/23 06:26:02;;;;;;;17.30;11.70;;;5.40;99.90;;;;;;5072513;28;20506;-40
2023/01/23 06:28:28;;;;;;;17.70;11.38;;;5.40;99.90;;;;;;5072482;28;20170;-41
2023/01/23 06:30:54;;;;;;;16.80;11.25;;;5.30;99.90;;;;;;5072891;28;20514;-44
2023/01/23 06:33:20;;;;;;;15.25;10.77;;;5.30;99.90;;;;;;5072552;28;20096;-43
2023/01/23 06:35:45;;;;;;;15.75;10.90;;;5.30;99.90;;;;;;5072278;28;20028;-42
2023/01/23 06:38:11;;;;;;;17.50;11.43;;;5.20;99.90;;;;;;5072335;28;20029;-43
2023/01/23 06:40:36;;;;;;;16.58;10.95;;;5.20;99.90;;;;;;5072526;28;20028;-42
2023/01/23 06:43:02;;;;;;;14.30;10.73;;;5.20;99.90;;;;;;5072393;28;20025;-43
2023/01/23 06:45:28;;;;;;;17.23;11.13;;;5.20;99.90;;;;;;5072285;28;20035;-43
2023/01/23 06:47:53;;;;;;;16.38;10.00;;;5.10;99.90;;;;;;5072004;28;20035;-43
2023/01/23 06:50:19;;;;;;;14.57;10.80;;;5.10;99.90;;;;;;5072053;28;20029;-39
2023/01/23 06:52:44;;;;;;;14.07;10.43;;;5.10;99.90;;;;;;5072245;28;20043;-36
2023/01/23 06:55:10;;;;;;;14.48;10.27;;;5.10;99.90;;;;;;5072193;28;20013;-35
2023/01/23 06:57:36;;;;;;;15.82;10.73;;;5.10;99.90;;;;;;5071736;28;20032;-38
2023/01/23 07:00:02;;;;;;;14.57;10.48;;;5.00;99.90;;;;;;5072035;28;20056;-38
2023/01/23 07:02:28;;;;;;;15.85;10.32;;;5.00;99.90;;;;;;5071723;28;20055;-43
2023/01/23 07:04:53;;;;;;;16.08;10.32;;;5.10;99.90;;;;;;5071983;28;20055;-41
2023/01/23 07:07:19;;;;;;;12.95;9.80;;;5.20;99.90;;;;;;5071687;28;20020;-44
2023/01/23 07:09:44;;;;;;;15.20;10.50;;;5.50;99.90;;;;;;5071865;28;20077;-43
2023/01/23 07:12:10;;;;;;;14.85;10.23;;;5.70;99.90;;;;;;5071849;28;20025;-40
2023/01/23 07:14:36;;;;;;;13.00;9.25;;;5.90;99.90;;;;;;5071811;28;20055;-41
2023/01/23 07:17:01;;;;;;;14.75;10.07;;;6.00;99.90;;;;;;5071371;28;20044;-40
2023/01/23 07:19:27;;;;;;;15.77;9.35;;;6.00;99.90;;;;;;5071674;28;20474;-35
2023/01/23 07:21:53;;;;;;;13.68;9.82;;;5.90;99.90;;;;;;5071710;28;20033;-38
2023/01/23 07:24:18;;;;;;;13.05;8.88;;;5.80;99.90;;;;;;5071655;28;20028;-42
2023/01/23 07:26:44;;;;;;;14.07;9.18;;;5.70;99.90;;;;;;5071757;28;20021;-42
2023/01/23 07:29:09;;;;;;;11.95;8.52;;;5.70;99.90;;;;;;5071880;28;20028;-37
2023/01/23 07:31:35;;;;;;;11.27;8.73;;;5.60;99.90;;;;;;5072220;28;20028;-35
2023/01/23 07:34:01;;;;;;;12.63;9.07;;;5.50;99.90;;;;;;5072192;28;20390;-42
2023/01/23 07:36:27;;;;;;;14.57;9.38;;;5.40;99.90;;;;;;5072333;28;20032;-40
2023/01/23 07:38:55;;;;;;;13.43;9.30;;;5.40;99.90;;;;;;5071378;28;20440;-43
2023/01/23 07:41:21;;;;;;;11.48;8.30;;;5.30;99.90;;;;;;5071435;28;20065;-35
2023/01/23 07:43:47;;;;;;;10.65;8.15;;;5.30;99.90;;;;;;5071455;28;20542;-43
2023/01/23 07:46:12;;;;;;;11.07;8.60;;;5.30;99.90;;;;;;5071418;28;20112;-33
2023/01/23 07:48:38;;;;;;;12.05;8.63;;;5.20;99.90;;;;;;5071383;28;20098;-42
2023/01/23 07:51:05;;;;;;;11.88;8.98;;;5.20;99.90;;;;;;5071684;28;20103;-40
2023/01/23 07:53:30;;;;;;;13.60;9.32;;;5.20;99.90;;;;;;5073721;28;20024;-33
2023/01/23 07:55:56;;;;;;;13.80;9.43;;;5.10;99.90;;;;;;5071538;28;20039;-44
2023/01/23 07:58:22;;;;;;;12.90;8.95;;;5.10;99.90;;;;;;5071041;28;20101;-43
2023/01/23 08:00:48;;;;;;;11.32;8.15;;;5.10;99.90;;;;;;5071355;28;20040;-38
2023/01/23 08:03:13;;;;;;;11.63;8.50;;;5.10;99.90;;;;;;5071266;28;20474;-43
2023/01/23 08:05:39;;;;;;;12.98;8.60;;;5.10;99.90;;;;;;5071480;28;20033;-44
2023/01/23 08:08:05;;;;;;;10.60;7.85;;;5.10;99.90;;;;;;5070827;28;20029;-35
2023/01/23 08:10:30;;;;;;;10.98;8.32;;;5.10;99.90;;;;;;5071286;28;20052;-41
2023/01/23 08:12:56;;;;;;;10.13;7.65;;;5.10;99.90;;;;;;5071108;28;20028;-42
2023/01/23 08:15:21;;;;;;;11.45;8.30;;;5.10;99.90;;;;;;5071077;28;20024;-43
2023/01/23 08:17:47;;;;;;;19.00;12.80;;;5.00;99.90;;;;;;5070921;28;20082;-43
2023/01/23 08:20:13;;;;;;;17.80;12.18;;;4.90;99.90;;;;;;5070994;28;20060;-36
2023/01/23 08:22:39;;;;;;;17.27;11.93;;;4.80;99.90;;;;;;5071034;28;20028;-39
2023/01/23 08:25:07;;;;;;;17.75;12.60;;;4.90;99.90;;;;;;5070990;28;20028;-38
2023/01/23 08:27:33;;;;;;;17.52;12.27;;;5.10;99.90;;;;;;5070795;28;20101;-36
2023/01/23 08:29:59;;;;;;;18.58;12.10;;;5.30;99.90;;;;;;5070685;28;20125;-38
2023/01/23 08:32:24;;;;;;;18.35;12.70;;;5.50;99.90;;;;;;5070919;28;20100;-37
2023/01/23 08:34:50;;;;;;;17.48;12.32;;;5.50;99.90;;;;;;5070926;28;20386;-35
2023/01/23 08:37:16;;;;;;;16.35;11.80;;;5.50;99.90;;;;;;5070928;28;20012;-35
2023/01/23 08:39:42;;;;;;;19.65;12.05;;;5.40;99.90;;;;;;5072984;28;20060;-38
2023/01/23 08:42:08;;;;;;;19.30;12.35;;;5.40;99.90;;;;;;5071418;28;20035;-38
2023/01/23 08:44:34;;;;;;;18.42;12.07;;;5.40;99.90;;;;;;5074267;28;20028;-35
2023/01/23 08:47:01;;;;;;;18.05;11.98;;;5.30;99.90;;;;;;5074453;28;20017;-37
2023/01/23 08:49:27;;;;;;;19.60;11.82;;;5.30;99.90;;;;;;5075276;28;20024;-39
2023/01/23 08:51:53;;;;;;;15.73;10.77;;;5.20;99.90;;;;;;5074544;28;20109;-37
2023/01/23 08:54:19;;;;;;;17.10;11.45;;;5.30;99.90;;;;;;5075589;28;20023;-34
2023/01/23 08:56:45;;;;;;;18.85;11.63;;;5.50;99.90;;;;;;5075999;28;20017;-38
2023/01/23 08:59:10;;;;;;;17.15;11.38;;;5.60;99.90;;;;;;5075777;28;20111;-34
2023/01/23 09:01:36;;;;;;;16.90;11.32;;;5.60;99.90;;;;;;5074304;28;20024;-39
2023/01/23 09:04:02;;;;;;;16.60;11.38;;;5.60;99.90;;;;;;5074295;28;20113;-36
2023/01/23 09:06:27;;;;;;;16.35;10.75;;;5.60;99.90;;;;;;5074109;28;20077;-36
2023/01/23 09:08:53;;;;;;;16.27;10.60;;;5.60;99.90;;;;;;5074093;28;20078;-37
2023/01/23 09:11:19;;;;;;;14.18;10.35;;;5.50;99.90;;;;;;5074173;28;20020;-37
2023/01/23 09:13:47;;;;;;;15.88;10.95;;;5.50;99.90;;;;;;5075012;28;20170;-37
2023/01/23 09:16:14;;;;;;;15.82;10.70;;;5.50;99.90;;;;;;5074570;28;20394;-36
2023/01/23 09:18:39;;;;;;;14.88;10.00;;;5.50;99.90;;;;;;5073969;28;20055;-37
2023/01/23 09:21:07;;;;;;;14.98;10.38;;;5.70;99.90;;;;;;5074030;28;20121;-43
2023/01/23 09:23:33;;;;;;;15.98;10.70;;;5.70;99.90;;;;;;5073917;28;20479;-42
2023/01/23 09:26:10;;;;;;;18.00;10.60;;;5.70;99.90;;;;;;5073717;28;20052;-42
2023/01/23 09:28:38;;;;;;;14.23;10.30;;;5.80;99.90;;;;;;5073657;28;20502;-44
2023/01/23 09:31:06;;;;;;;14.15;10.35;;;5.70;99.90;;;;;;5073803;28;20023;-43
2023/01/23 09:33:33;;;;;;;16.10;11.10;;;5.70;99.90;;;;;;5073828;28;20034;-43
2023/01/23 09:35:59;;;;;;;15.40;10.32;;;5.60;99.90;;;;;;5073635;28;20367;-43
2023/01/23 09:38:25;;;;;;;15.57;9.70;;;5.60;99.90;;;;;;5073644;28;20050;-43
2023/01/23 09:40:55;;;;;;;15.25;10.68;;;5.60;99.90;;;;;;5073618;28;20047;-39
2023/01/23 09:43:34;;;;;;;15.48;10.73;;;5.60;99.90;;;;;;5073626;28;20021;-43
2023/01/23 09:46:11;;;;;;;15.52;10.75;;;5.80;99.90;;;;;;5073392;28;20107;-40
2023/01/23 09:48:43;;;;;;;15.45;10.50;;;5.90;99.90;;;;;;5073415;28;20033;-33
2023/01/23 09:51:30;;;;;;;16.75;10.70;;;5.90;99.90;;;;;;5076538;28;20757;-33
2023/01/23 09:54:01;;;;;;;14.70;10.25;;;5.90;99.90;;;;;;5073430;28;20478;-38
2023/01/23 09:56:34;;;;;;;14.32;9.88;;;5.90;99.90;;;;;;5073180;28;20052;-40
2023/01/23 09:59:16;;;;;;;15.02;9.32;;;5.80;99.90;;;;;;5073237;28;20523;-43
2023/01/23 10:01:42;;;;;;;15.35;10.30;;;5.70;99.90;;;;;;5072951;28;20029;-40
2023/01/23 10:04:11;;;;;;;13.57;9.18;;;5.70;99.90;;;;;;5073187;28;20028;-43
2023/01/23 10:07:04;;;;;;;15.80;10.43;;;5.70;99.90;;;;;;5072818;28;20514;-43
2023/01/23 10:10:04;;;;;;;13.23;9.57;;;5.80;99.90;;;;;;5073063;28;20324;-43
2023/01/23 10:12:48;;;;;;;13.57;9.30;;;5.90;99.90;;;;;;5073302;28;20432;-43
2023/01/23 10:15:40;;;;;;;12.77;8.95;;;6.00;99.90;;;;;;5073011;28;20058;-44
2023/01/23 10:18:31;;;;;;;12.68;8.60;;;5.90;99.90;;;;;;5072732;28;20028;-35
2023/01/23 10:21:18;;;;;;;12.23;8.40;;;5.90;99.90;;;;;;5073315;28;20024;-35
2023/01/23 10:24:02;;;;;;;13.90;8.98;;;5.80;99.90;;;;;;5073785;28;20390;-37
2023/01/23 10:26:35;;;;;;;13.43;9.48;;;5.80;99.90;;;;;;5072429;28;20029;-38
2023/01/23 10:29:23;;;;;;;12.03;8.63;;;5.70;99.90;;;;;;5072687;28;20020;-37
2023/01/23 10:31:53;;;;;;;12.63;8.27;;;5.70;99.90;;;;;;5072281;28;20395;-36
2023/01/23 10:34:22;;;;;;;12.57;8.32;;;5.80;99.90;;;;;;5072541;28;20098;-34
2023/01/23 10:37:16;;;;;;;13.25;8.73;;;6.00;99.90;;;;;;5072316;28;20021;-38
2023/01/23 10:39:53;;;;;;;14.35;8.38;;;6.00;99.90;;;;;;5072413;28;20039;-40
2023/01/23 10:42:21;;;;;;;12.95;8.85;;;6.00;99.90;;;;;;5072470;28;20418;-33
2023/01/23 10:44:47;;;;;;;14.02;7.88;;;6.00;99.90;;;;;;5072457;28;20035;-35
2023/01/23 10:47:43;;;;;;;11.75;7.88;;;6.00;99.90;;;;;;5073156;28;20028;-36
2023/01/23 10:50:10;;;;;;;12.38;7.90;;;5.90;99.90;;;;;;5072385;28;20051;-35
2023/01/23 10:52:41;;;;;;;13.32;8.30;;;5.90;99.90;;;;;;5072131;28;20036;-35
2023/01/23 10:55:18;;;;;;;10.88;7.97;;;5.80;99.90;;;;;;5072170;28;20099;-35
2023/01/23 10:57:51;;;;;;;11.70;8.40;;;5.90;99.90;;;;;;5071819;28;20120;-39
2023/01/23 11:00:32;;;;;;;12.10;8.30;;;6.00;99.90;;;;;;5072024;28;20054;-33
2023/01/23 11:03:20;;;;;;;11.93;7.68;;;6.10;99.90;;;;;;5072079;28;20567;-33
2023/01/23 11:06:01;;;;;;;11.07;8.23;;;6.20;99.90;;;;;;5071182;28;20501;-35
2023/01/23 11:08:39;;;;;;;13.07;8.18;;;6.20;99.90;;;;;;5071799;28;20024;-36
2023/01/23 11:11:21;;;;;;;12.93;8.02;;;6.10;99.90;;;;;;5071789;28;20028;-36
2023/01/23 11:13:49;;;;;;;11.80;7.90;;;6.00;99.90;;;;;;5071926;28;20025;-39
2023/01/23 11:16:20;;;;;;;11.27;7.35;;;6.00;99.90;;;;;;5071623;28;20107;-37
2023/01/23 11:19:01;;;;;;;11.63;8.18;;;5.90;99.90;;;;;;5072001;28;20025;-33
2023/01/23 11:21:31;;;;;;;11.27;7.65;;;5.90;99.90;;;;;;5071592;28;20032;-41
2023/01/23 11:24:18;;;;;;;11.27;7.75;;;5.90;99.90;;;;;;5071657;28;20544;-34
2023/01/23 11:26:43;;;;;;;13.27;7.90;;;6.10;99.90;;;;;;5071371;28;20034;-38
2023/01/23 11:29:24;;;;;;;11.52;7.18;;;6.20;99.90;;;;;;5071492;28;20170;-38
2023/01/23 11:32:08;;;;;;;11.02;7.93;;;6.20;99.90;;;;;;5071536;28;20028;-39
2023/01/23 11:34:42;;;;;;;12.30;8.13;;;6.20;99.90;;;;;;5071890;28;20112;-33
2023/01/23 11:37:16;;;;;;;15.73;8.75;;;6.10;99.90;;;;;;5072648;28;20078;-36
2023/01/23 11:40:01;;;;;;;12.57;8.27;;;6.10;99.90;;;;;;5071431;28;20032;-36
2023/01/23 11:42:28;;;;;;;10.75;7.70;;;6.10;99.90;;;;;;5071494;28;20262;-33
2023/01/23 11:44:57;;;;;;;11.98;7.75;;;6.00;99.90;;;;;;5071455;28;20509;-33
2023/01/23 11:47:42;;;;;;;12.18;7.53;;;6.00;99.90;;;;;;5071351;28;20115;-33
2023/01/23 11:50:13;;;;;;;;;;;6.00;99.90;;;;;;5071701;28;20040;-34
2023/01/23 11:52:50;;;;;;;10.75;7.07;;;6.20;99.90;;;;;;5071212;28;19911;-39
2023/01/23 11:55:35;;;;;;;12.27;7.63;;;6.20;99.90;;;;;;5071259;28;20061;-39
2023/01/23 11:58:13;;;;;;;;;;;6.20;99.90;;;;;;5073268;28;20032;-38
2023/01/23 12:00:57;;;;;;;17.38;11.13;;;6.20;99.90;;;;;;5070832;28;19908;-37
2023/01/23 12:03:45;;;;;;;19.77;11.18;;;6.10;99.90;;;;;;5073217;28;20032;-43
2023/01/23 12:06:44;;;;;;;19.25;11.57;;;5.80;99.90;;;;;;5070941;28;20379;-43
2023/01/23 12:09:13;;;;;;;16.70;11.63;;;5.60;99.90;;;;;;5070923;28;20033;-44
2023/01/23 12:11:42;;;;;;;19.08;12.43;;;5.50;99.90;;;;;;5071120;28;20025;-43
2023/01/23 12:14:28;;;;;;;20.75;12.02;;;5.60;99.90;;;;;;5071075;28;20028;-41
2023/01/23 12:17:12;;;;;;;16.65;11.25;;;5.70;99.90;;;;;;5072365;28;20021;-43
2023/01/23 12:20:00;;;;;;;19.67;11.75;;;5.80;99.90;;;;;;5075087;28;20501;-42
2023/01/23 12:22:47;;;;;;;21.10;11.88;;;5.80;99.90;;;;;;5075546;28;20032;-44
2023/01/23 12:25:42;;;;;;;18.77;11.38;;;5.80;99.90;;;;;;5075027;28;20029;-40
2023/01/23 12:28:20;;;;;;;20.25;11.75;;;5.70;99.90;;;;;;5074671;28;20036;-43
2023/01/23 12:31:04;;;;;;;17.70;11.05;;;5.70;99.90;;;;;;5074928;28;20102;-37
2023/01/23 12:33:45;;;;;;;18.17;10.93;;;5.60;99.90;;;;;;5076490;28;20051;-38
2023/01/23 12:36:13;;;;;;;19.25;11.30;;;5.60;99.90;;;;;;5074614;28;20048;-38
2023/01/23 12:38:57;;;;;;;20.25;11.85;;;5.70;99.90;;;;;;5074714;28;20050;-38
2023/01/23 12:42:02;;;;;;;17.85;11.30;;;5.80;99.90;;;;;;5074773;28;20500;-38
2023/01/23 12:44:52;;;;;;;33.45;14.43;;;5.90;99.90;;;;;;5072106;28;20044;-39
2023/01/23 12:47:24;;;;;;;35.22;13.48;;;5.80;99.90;;;;;;5071966;28;20566;-36
2023/01/23 12:50:19;;;;;;;33.00;14.88;;;5.60;99.90;;;;;;5073574;28;20482;-35
2023/01/23 12:53:15;;;;;;;31.00;14.60;;;5.50;99.90;;;;;;5075299;28;20067;-37
2023/01/23 12:55:49;;;;;;;34.17;15.77;;;5.40;99.90;;;;;;5074046;28;20502;-40
2023/01/23 12:58:17;;;;;;;25.63;13.73;;;5.40;99.90;;;;;;5074196;28;20082;-40
2023/01/23 13:01:01;;;;;;;28.83;14.30;;;5.30;99.90;;;;;;5074003;28;20070;-42
2023/01/23 13:03:42;;;;;;;31.02;13.55;;;5.40;99.90;;;;;;5074969;28;20024;-41
2023/01/23 13:06:20;;;;;;;34.30;14.60;;;5.40;99.90;;;;;;5074306;28;20108;-35
2023/01/23 13:09:12;;;;;;;27.30;13.40;;;5.50;99.90;;;;;;5074459;28;20055;-43
2023/01/23 13:12:17;;;;;;;30.90;13.20;;;5.50;99.90;;;;;;5074219;28;20437;-43